createdAt,value
2023-02-28T00:04:20.213Z,22.98
2023-02-28T00:09:43.429Z,23.00
2023-02-28T00:15:08.122Z,25.73
2023-02-28T00:20:38.798Z,28.88
2023-02-28T00:26:01.862Z,21.85
2023-02-28T00:31:31.117Z,29.13
2023-02-28T00:36:58.147Z,23.15
2023-02-28T00:42:27.779Z,27.40
2023-02-28T00:47:50.839Z,19.70
2023-02-28T00:53:17.962Z,21.08
2023-02-28T00:58:41.000Z,22.15
2023-02-28T01:04:09.407Z,18.77
2023-02-28T01:09:38.938Z,17.00
2023-02-28T01:15:06.353Z,19.77
2023-02-28T01:20:35.637Z,18.10
2023-02-28T01:26:05.224Z,22.92
2023-02-28T01:31:33.698Z,18.60
2023-02-28T01:37:02.279Z,19.98
2023-02-28T01:42:31.896Z,15.93
2023-02-28T01:47:56.283Z,17.10
2023-02-28T01:53:27.185Z,16.48
2023-02-28T01:58:51.330Z,15.35
2023-02-28T02:04:22.011Z,18.02
2023-02-28T02:09:45.399Z,13.93
2023-02-28T02:15:18.107Z,16.03
2023-02-28T02:20:54.433Z,14.98
2023-02-28T02:26:43.173Z,13.98
2023-02-28T02:32:21.958Z,16.38
2023-02-28T02:37:53.663Z,17.43
2023-02-28T02:43:25.198Z,17.80
2023-02-28T02:48:52.940Z,15.95
2023-02-28T02:54:29.075Z,15.63
2023-02-28T02:59:53.606Z,15.68
2023-02-28T03:05:24.081Z,19.88
2023-02-28T03:10:50.519Z,16.63
2023-02-28T03:16:29.791Z,17.45
2023-02-28T03:22:04.819Z,15.93
2023-02-28T03:27:39.097Z,18.52
2023-02-28T03:33:10.263Z,13.10
2023-02-28T03:38:39.660Z,15.05
2023-02-28T03:44:16.574Z,16.67
2023-02-28T03:49:48.855Z,15.43
2023-02-28T03:55:14.601Z,11.80
2023-02-28T04:00:47.849Z,19.50
2023-02-28T04:06:16.905Z,20.98
2023-02-28T04:11:46.835Z,15.43
2023-02-28T04:17:13.578Z,16.45
2023-02-28T04:22:37.425Z,18.77
2023-02-28T04:28:02.674Z,15.27
2023-02-28T04:33:33.902Z,14.17
2023-02-28T04:39:02.821Z,32.33
2023-02-28T04:44:30.510Z,15.10
2023-02-28T04:50:00.212Z,14.73
2023-02-28T05:00:54.885Z,20.83
2023-02-28T05:06:21.489Z,21.17
2023-02-28T05:11:46.653Z,37.58
2023-02-28T05:17:15.876Z,44.70
2023-02-28T05:22:42.620Z,28.70
2023-02-28T05:28:10.841Z,22.02
2023-02-28T05:33:35.793Z,18.20
2023-02-28T05:39:00.010Z,19.67
2023-02-28T05:44:23.357Z,19.38
2023-02-28T05:49:46.208Z,20.15
2023-02-28T05:55:15.767Z,23.02
2023-02-28T06:00:40.848Z,26.25
2023-02-28T06:06:10.879Z,17.65
2023-02-28T06:11:35.677Z,26.00
2023-02-28T06:17:05.257Z,23.85
2023-02-28T06:22:33.869Z,15.63
2023-02-28T06:27:59.331Z,20.50
2023-02-28T06:38:55.671Z,22.98
2023-02-28T06:44:26.130Z,18.40
2023-02-28T06:49:54.569Z,25.27
2023-02-28T06:55:20.709Z,22.60
2023-02-28T07:00:52.608Z,14.57
2023-02-28T07:06:18.932Z,11.18
2023-02-28T07:17:16.771Z,22.38
2023-02-28T07:22:45.078Z,26.40
2023-02-28T07:28:08.081Z,19.02
2023-02-28T07:33:38.314Z,16.17
2023-02-28T07:39:07.136Z,15.57
2023-02-28T07:44:36.546Z,15.07
2023-02-28T07:50:06.249Z,13.70
2023-02-28T07:55:34.023Z,12.80
2023-02-28T08:01:07.515Z,15.27
2023-02-28T08:06:37.319Z,14.50
2023-02-28T08:11:59.284Z,13.35
2023-02-28T08:17:27.453Z,15.18
2023-02-28T08:22:57.008Z,20.13
2023-02-28T08:28:27.399Z,16.58
2023-02-28T08:33:52.136Z,18.38
2023-02-28T08:39:16.897Z,19.48
2023-02-28T08:44:45.658Z,12.95
2023-02-28T08:50:09.009Z,12.85
2023-02-28T08:55:34.141Z,20.65
2023-02-28T09:00:57.705Z,17.33
2023-02-28T09:06:28.440Z,16.05
2023-02-28T09:11:59.071Z,15.85
2023-02-28T09:17:24.781Z,13.02
2023-02-28T09:22:55.244Z,16.90
2023-02-28T09:28:23.019Z,15.70
2023-02-28T09:33:48.326Z,18.60
2023-02-28T09:39:17.622Z,14.80
2023-02-28T09:44:44.950Z,15.10
2023-02-28T09:50:18.972Z,14.32
2023-02-28T09:55:49.250Z,29.60
2023-02-28T10:01:22.100Z,15.63
2023-02-28T10:06:52.491Z,16.50
2023-02-28T10:12:22.106Z,13.13
2023-02-28T10:17:55.434Z,20.58
2023-02-28T10:23:30.649Z,13.35
2023-02-28T10:28:54.705Z,19.92
2023-02-28T10:34:24.800Z,24.02
2023-02-28T10:39:54.031Z,17.52
2023-02-28T10:45:22.407Z,13.38
2023-02-28T10:50:52.738Z,33.83
2023-02-28T10:56:22.249Z,27.80
2023-02-28T11:01:50.002Z,21.37
2023-02-28T11:07:23.208Z,20.05
2023-02-28T11:12:57.272Z,31.17
2023-02-28T11:18:28.385Z,25.90
2023-02-28T11:24:02.143Z,16.17
2023-02-28T11:29:29.817Z,14.88
2023-02-28T11:35:02.659Z,23.67
2023-02-28T11:40:31.063Z,17.10
2023-02-28T11:46:02.699Z,22.08
2023-02-28T11:51:34.942Z,15.85
2023-02-28T11:57:14.690Z,18.60
2023-02-28T12:02:44.776Z,29.55
2023-02-28T12:08:12.126Z,19.17
2023-02-28T12:13:42.681Z,17.92
2023-02-28T12:19:19.540Z,17.83
2023-02-28T12:24:53.695Z,19.45
2023-02-28T12:30:24.841Z,15.25
2023-02-28T12:35:56.655Z,18.23
2023-02-28T12:41:29.343Z,21.08
2023-02-28T12:46:54.838Z,24.90
2023-02-28T12:52:22.063Z,23.17
2023-02-28T12:57:50.685Z,33.55
2023-02-28T13:03:31.255Z,19.45
2023-02-28T13:09:03.183Z,19.80
2023-02-28T13:14:32.708Z,16.48
2023-02-28T13:20:02.404Z,20.20
2023-02-28T13:25:43.374Z,18.27
2023-02-28T13:31:07.690Z,11.15
2023-02-28T13:36:36.024Z,8.57
2023-02-28T13:42:24.226Z,14.40
2023-02-28T13:47:56.841Z,14.35
2023-02-28T13:53:36.594Z,13.65
2023-02-28T13:59:03.637Z,9.30
2023-02-28T14:04:46.070Z,13.35
2023-02-28T14:10:10.771Z,11.52
2023-02-28T14:15:42.250Z,12.60
2023-02-28T14:21:12.403Z,8.35
2023-02-28T14:26:53.743Z,13.55
2023-02-28T14:32:25.294Z,20.45
2023-02-28T14:37:51.568Z,17.90
2023-02-28T14:43:23.626Z,10.70
2023-02-28T14:48:53.430Z,13.63
2023-02-28T14:54:25.073Z,15.45
2023-02-28T15:00:01.061Z,15.18
2023-02-28T15:05:33.497Z,19.60
2023-02-28T15:10:56.787Z,12.00
2023-02-28T15:16:24.779Z,18.10
2023-02-28T15:21:55.561Z,11.43
2023-02-28T15:27:23.082Z,11.77
2023-02-28T15:33:04.087Z,13.23
2023-02-28T15:38:29.454Z,28.27
2023-02-28T15:44:18.038Z,24.77
2023-02-28T15:49:49.392Z,27.95
2023-02-28T15:55:21.355Z,29.27
2023-02-28T16:01:01.429Z,31.13
2023-02-28T16:06:36.654Z,21.30
2023-02-28T16:12:02.355Z,19.70
2023-02-28T16:17:32.338Z,20.95
2023-02-28T16:28:34.794Z,16.27
2023-02-28T16:34:01.126Z,20.35
2023-02-28T16:39:25.632Z,46.22
2023-02-28T16:44:51.406Z,13.65
2023-02-28T16:50:18.244Z,22.80
2023-02-28T16:55:41.646Z,19.52
2023-02-28T17:01:11.298Z,26.30
2023-02-28T17:06:38.882Z,18.98
2023-02-28T17:12:00.782Z,18.38
2023-02-28T17:17:30.916Z,10.73
2023-02-28T17:22:54.306Z,16.73
2023-02-28T17:28:21.959Z,20.70
2023-02-28T17:39:25.220Z,19.40
2023-02-28T17:44:53.830Z,23.88
2023-02-28T17:50:23.406Z,16.05
2023-02-28T17:55:48.145Z,20.27
2023-02-28T18:01:14.770Z,30.15
2023-02-28T18:06:49.163Z,27.00
2023-02-28T18:12:15.671Z,28.95
2023-02-28T18:17:39.778Z,34.92
2023-02-28T18:23:08.667Z,28.10
2023-02-28T18:28:38.040Z,24.20
2023-02-28T18:34:06.752Z,28.35
2023-02-28T18:39:29.690Z,32.90
2023-02-28T18:44:58.925Z,22.00
2023-02-28T18:55:49.880Z,19.08
2023-02-28T19:01:18.203Z,17.63
2023-02-28T19:06:42.145Z,23.53
2023-02-28T19:12:10.649Z,30.53
2023-02-28T19:17:37.739Z,34.42
2023-02-28T19:23:05.766Z,30.63
2023-02-28T19:28:31.350Z,21.42
2023-02-28T19:33:57.831Z,25.30
2023-02-28T19:39:26.955Z,16.15
2023-02-28T19:44:54.162Z,27.67
2023-02-28T19:50:19.344Z,21.10
2023-02-28T19:55:42.718Z,18.77
2023-02-28T20:01:09.900Z,16.48
2023-02-28T20:06:40.149Z,19.25
2023-02-28T20:12:05.207Z,18.88
2023-02-28T20:17:35.933Z,20.17
2023-02-28T20:23:00.125Z,27.50
2023-02-28T20:28:23.018Z,29.33
2023-02-28T20:33:51.130Z,20.02
2023-02-28T20:39:21.207Z,21.85
2023-02-28T20:44:50.476Z,19.27
2023-02-28T20:50:14.679Z,16.42
2023-02-28T20:55:54.211Z,18.67
2023-02-28T21:01:26.124Z,22.20
2023-02-28T21:06:54.949Z,22.80
2023-02-28T21:12:20.540Z,25.40
2023-02-28T21:17:48.495Z,23.65
2023-02-28T21:23:12.616Z,28.38
2023-02-28T21:28:38.733Z,34.22
2023-02-28T21:34:05.209Z,45.65
2023-02-28T21:39:30.217Z,37.42
2023-02-28T21:44:58.966Z,41.25
2023-02-28T21:50:27.586Z,33.40
2023-02-28T21:55:56.220Z,46.80
2023-02-28T22:01:22.833Z,67.25
2023-02-28T22:06:46.370Z,62.78
2023-02-28T22:12:15.084Z,55.23
2023-02-28T22:17:39.560Z,53.58
2023-02-28T22:23:07.711Z,50.25
2023-02-28T22:28:35.000Z,71.15
2023-02-28T22:34:01.707Z,86.38
2023-02-28T22:39:29.767Z,85.90
2023-02-28T22:44:57.847Z,94.50
2023-02-28T22:50:27.128Z,92.10
2023-02-28T22:55:55.422Z,75.78
2023-02-28T23:01:20.625Z,74.03
2023-02-28T23:06:45.168Z,100.53
2023-02-28T23:12:08.361Z,114.05
2023-02-28T23:17:37.211Z,115.20
2023-02-28T23:23:03.149Z,99.75
2023-02-28T23:28:31.868Z,73.68
2023-02-28T23:33:54.649Z,42.78
2023-02-28T23:39:20.480Z,38.13
2023-02-28T23:44:43.783Z,55.58
2023-02-28T23:50:12.467Z,44.22
2023-02-28T23:55:36.905Z,44.58
